sensor_id;sensor_type;location;lat;lon;timestamp;pressure;altitude;pressure_sealevel;temperature;humidity
23118;BME280;11728;50.624;6.014;2023-04-19T00:04:13;99075.63;;;11.47;71.15
23118;BME280;11728;50.624;6.014;2023-04-19T00:09:35;99092.41;;;11.46;71.20
23118;BME280;11728;50.624;6.014;2023-04-19T00:14:55;99064.19;;;11.47;71.22
23118;BME280;11728;50.624;6.014;2023-04-19T00:20:16;99071.19;;;11.49;71.07
23118;BME280;11728;50.624;6.014;2023-04-19T00:25:37;99069.44;;;11.48;70.90
23118;BME280;11728;50.624;6.014;2023-04-19T00:30:57;99065.06;;;11.46;71.09
23118;BME280;11728;50.624;6.014;2023-04-19T00:36:18;99068.63;;;11.43;70.97
23118;BME280;11728;50.624;6.014;2023-04-19T00:41:39;99070.41;;;11.41;70.88
23118;BME280;11728;50.624;6.014;2023-04-19T00:47:00;99077.50;;;11.39;70.80
23118;BME280;11728;50.624;6.014;2023-04-19T00:52:21;99082.03;;;11.30;70.65
23118;BME280;11728;50.624;6.014;2023-04-19T00:57:42;99079.41;;;11.31;70.38
23118;BME280;11728;50.624;6.014;2023-04-19T01:03:03;99077.72;;;11.24;70.56
23118;BME280;11728;50.624;6.014;2023-04-19T01:08:24;99072.50;;;11.18;70.90
23118;BME280;11728;50.624;6.014;2023-04-19T01:13:45;99064.63;;;11.14;71.40
23118;BME280;11728;50.624;6.014;2023-04-19T01:19:05;99068.25;;;11.05;71.93
23118;BME280;11728;50.624;6.014;2023-04-19T01:24:26;99070.13;;;10.97;72.57
23118;BME280;11728;50.624;6.014;2023-04-19T01:29:47;99066.56;;;11.00;72.89
23118;BME280;11728;50.624;6.014;2023-04-19T01:35:08;99063.03;;;11.01;73.38
23118;BME280;11728;50.624;6.014;2023-04-19T01:40:30;99061.28;;;11.00;73.62
23118;BME280;11728;50.624;6.014;2023-04-19T01:45:51;99058.63;;;11.01;73.79
23118;BME280;11728;50.624;6.014;2023-04-19T01:51:12;99050.69;;;11.03;74.05
23118;BME280;11728;50.624;6.014;2023-04-19T01:56:32;99054.22;;;11.02;74.58
23118;BME280;11728;50.624;6.014;2023-04-19T02:01:53;99049.75;;;11.05;74.80
23118;BME280;11728;50.624;6.014;2023-04-19T02:07:14;99042.63;;;11.12;74.33
23118;BME280;11728;50.624;6.014;2023-04-19T02:12:35;99040.84;;;11.12;74.51
23118;BME280;11728;50.624;6.014;2023-04-19T02:17:55;99046.09;;;11.14;74.74
23118;BME280;11728;50.624;6.014;2023-04-19T02:23:16;99051.44;;;11.12;75.41
23118;BME280;11728;50.624;6.014;2023-04-19T02:28:37;99042.56;;;11.15;75.46
23118;BME280;11728;50.624;6.014;2023-04-19T02:33:58;99043.47;;;11.15;75.45
23118;BME280;11728;50.624;6.014;2023-04-19T02:39:19;99044.38;;;11.11;75.55
23118;BME280;11728;50.624;6.014;2023-04-19T02:44:39;99044.59;;;10.98;75.67
23118;BME280;11728;50.624;6.014;2023-04-19T02:50:00;99046.31;;;11.00;75.33
23118;BME280;11728;50.624;6.014;2023-04-19T02:55:21;99048.88;;;11.06;74.62
23118;BME280;11728;50.624;6.014;2023-04-19T03:00:42;99055.06;;;11.04;74.46
23118;BME280;11728;50.624;6.014;2023-04-19T03:06:03;99053.34;;;11.01;75.05
23118;BME280;11728;50.624;6.014;2023-04-19T03:11:23;99044.63;;;10.93;75.33
23118;BME280;11728;50.624;6.014;2023-04-19T03:16:44;99043.88;;;10.82;75.63
23118;BME280;11728;50.624;6.014;2023-04-19T03:22:05;99041.47;;;10.65;76.22
23118;BME280;11728;50.624;6.014;2023-04-19T03:27:25;99035.63;;;10.36;77.12
23118;BME280;11728;50.624;6.014;2023-04-19T03:32:46;99036.78;;;10.02;78.37
23118;BME280;11728;50.624;6.014;2023-04-19T03:38:07;99043.97;;;9.79;79.35
23118;BME280;11728;50.624;6.014;2023-04-19T03:43:28;99031.78;;;9.63;80.00
23118;BME280;11728;50.624;6.014;2023-04-19T03:48:49;99025.75;;;9.49;80.83
23118;BME280;11728;50.624;6.014;2023-04-19T03:54:10;99030.22;;;9.35;81.21
23118;BME280;11728;50.624;6.014;2023-04-19T03:59:31;99032.06;;;9.24;81.84
23118;BME280;11728;50.624;6.014;2023-04-19T04:04:53;99038.22;;;9.22;82.23
23118;BME280;11728;50.624;6.014;2023-04-19T04:10:14;99035.56;;;9.26;82.46
23118;BME280;11728;50.624;6.014;2023-04-19T04:15:35;99032.91;;;9.32;82.62
23118;BME280;11728;50.624;6.014;2023-04-19T04:20:56;99035.50;;;9.37;82.90
23118;BME280;11728;50.624;6.014;2023-04-19T04:26:17;99039.91;;;9.39;83.07
23118;BME280;11728;50.624;6.014;2023-04-19T04:31:39;99041.59;;;9.45;83.48
23118;BME280;11728;50.624;6.014;2023-04-19T04:37:00;99052.91;;;9.59;83.12
23118;BME280;11728;50.624;6.014;2023-04-19T04:42:21;99048.47;;;9.70;83.31
23118;BME280;11728;50.624;6.014;2023-04-19T04:47:42;99055.41;;;9.81;83.74
23118;BME280;11728;50.624;6.014;2023-04-19T04:53:03;99057.09;;;9.88;83.85
23118;BME280;11728;50.624;6.014;2023-04-19T04:58:23;99055.31;;;9.97;83.91
23118;BME280;11728;50.624;6.014;2023-04-19T05:03:44;99057.03;;;10.01;84.01
23118;BME280;11728;50.624;6.014;2023-04-19T05:09:05;99061.41;;;10.04;84.63
23118;BME280;11728;50.624;6.014;2023-04-19T05:14:27;99062.19;;;10.15;84.61
23118;BME280;11728;50.624;6.014;2023-04-19T05:19:47;99063.03;;;10.20;84.87
23118;BME280;11728;50.624;6.014;2023-04-19T05:25:09;99064.72;;;10.27;85.01
23118;BME280;11728;50.624;6.014;2023-04-19T05:30:30;99062.00;;;10.36;85.22
23118;BME280;11728;50.624;6.014;2023-04-19T05:35:51;99061.00;;;10.46;85.30
23118;BME280;11728;50.624;6.014;2023-04-19T05:41:11;99053.06;;;10.49;85.69
23118;BME280;11728;50.624;6.014;2023-04-19T05:46:32;99060.91;;;10.55;85.75
23118;BME280;11728;50.624;6.014;2023-04-19T05:51:53;99058.19;;;10.62;85.90
23118;BME280;11728;50.624;6.014;2023-04-19T05:57:14;99051.97;;;10.68;85.61
23118;BME280;11728;50.624;6.014;2023-04-19T06:02:35;99050.28;;;10.61;86.46
23118;BME280;11728;50.624;6.014;2023-04-19T06:07:56;99050.28;;;10.64;86.65
23118;BME280;11728;50.624;6.014;2023-04-19T06:13:17;99053.72;;;10.69;86.80
23118;BME280;11728;50.624;6.014;2023-04-19T06:18:38;99055.44;;;10.74;86.65
23118;BME280;11728;50.624;6.014;2023-04-19T06:23:59;99051.84;;;10.79;86.82
23118;BME280;11728;50.624;6.014;2023-04-19T06:29:20;99050.03;;;10.81;87.01
23118;BME280;11728;50.624;6.014;2023-04-19T06:34:41;99049.78;;;11.02;86.38
23118;BME280;11728;50.624;6.014;2023-04-19T06:40:02;99050.28;;;11.33;85.70
23118;BME280;11728;50.624;6.014;2023-04-19T06:45:24;99049.59;;;11.82;84.13
23118;BME280;11728;50.624;6.014;2023-04-19T06:50:45;99047.38;;;12.08;83.54
23118;BME280;11728;50.624;6.014;2023-04-19T06:56:06;99038.31;;;12.21;82.59
23118;BME280;11728;50.624;6.014;2023-04-19T07:01:27;99046.34;;;12.18;82.36
23118;BME280;11728;50.624;6.014;2023-04-19T07:06:48;99033.41;;;12.48;81.81
23118;BME280;11728;50.624;6.014;2023-04-19T07:12:12;99039.22;;;12.68;80.88
23118;BME280;11728;50.624;6.014;2023-04-19T07:17:34;99039.03;;;12.78;80.10
23118;BME280;11728;50.624;6.014;2023-04-19T07:22:55;99030.84;;;12.90;79.75
23118;BME280;11728;50.624;6.014;2023-04-19T07:28:16;99042.63;;;13.18;78.99
23118;BME280;11728;50.624;6.014;2023-04-19T07:33:36;99030.88;;;13.29;77.66
23118;BME280;11728;50.624;6.014;2023-04-19T07:38:57;99035.88;;;13.44;77.36
23118;BME280;11728;50.624;6.014;2023-04-19T07:44:18;99030.38;;;13.89;76.43
23118;BME280;11728;50.624;6.014;2023-04-19T07:49:39;99039.34;;;14.55;74.41
23118;BME280;11728;50.624;6.014;2023-04-19T07:54:59;99032.97;;;14.27;75.17
23118;BME280;11728;50.624;6.014;2023-04-19T08:00:21;99029.25;;;14.34;75.00
23118;BME280;11728;50.624;6.014;2023-04-19T08:05:41;99023.13;;;15.82;70.94
23118;BME280;11728;50.624;6.014;2023-04-19T08:11:03;99010.72;;;14.96;70.51
23118;BME280;11728;50.624;6.014;2023-04-19T08:16:24;99020.81;;;14.84;69.16
23118;BME280;11728;50.624;6.014;2023-04-19T08:21:44;99005.47;;;15.24;68.54
23118;BME280;11728;50.624;6.014;2023-04-19T08:27:05;99006.56;;;15.45;67.63
23118;BME280;11728;50.624;6.014;2023-04-19T08:32:26;99004.34;;;15.59;67.68
23118;BME280;11728;50.624;6.014;2023-04-19T08:37:47;99004.88;;;15.13;69.25
23118;BME280;11728;50.624;6.014;2023-04-19T08:43:09;99007.63;;;15.10;69.84
23118;BME280;11728;50.624;6.014;2023-04-19T08:48:30;99008.00;;;14.98;70.32
23118;BME280;11728;50.624;6.014;2023-04-19T08:53:55;99010.13;;;16.26;66.85
23118;BME280;11728;50.624;6.014;2023-04-19T08:59:16;99002.50;;;18.46;61.22
23118;BME280;11728;50.624;6.014;2023-04-19T09:04:37;98994.75;;;17.97;59.74
23118;BME280;11728;50.624;6.014;2023-04-19T09:10:10;98996.84;;;17.89;59.38
23118;BME280;11728;50.624;6.014;2023-04-19T09:15:39;98979.97;;;19.66;54.78
23118;BME280;11728;50.624;6.014;2023-04-19T09:21:01;98983.53;;;19.48;54.52
23118;BME280;11728;50.624;6.014;2023-04-19T09:26:22;98965.41;;;20.93;51.64
23118;BME280;11728;50.624;6.014;2023-04-19T09:31:55;98975.66;;;21.97;48.46
23118;BME280;11728;50.624;6.014;2023-04-19T09:37:16;98975.09;;;21.12;48.34
23118;BME280;11728;50.624;6.014;2023-04-19T09:42:44;98979.09;;;19.66;49.28
23118;BME280;11728;50.624;6.014;2023-04-19T09:48:06;98963.09;;;18.89;50.07
23118;BME280;11728;50.624;6.014;2023-04-19T09:53:29;98951.53;;;20.85;47.52
23118;BME280;11728;50.624;6.014;2023-04-19T09:58:52;98942.78;;;22.52;45.21
23118;BME280;11728;50.624;6.014;2023-04-19T10:04:14;98939.72;;;23.29;42.81
23118;BME280;11728;50.624;6.014;2023-04-19T10:09:41;98940.78;;;22.70;43.36
23118;BME280;11728;50.624;6.014;2023-04-19T10:15:03;98934.56;;;23.67;40.70
23118;BME280;11728;50.624;6.014;2023-04-19T10:20:35;98915.13;;;24.28;39.52
23118;BME280;11728;50.624;6.014;2023-04-19T10:25:57;98914.41;;;25.02;39.24
23118;BME280;11728;50.624;6.014;2023-04-19T10:31:19;98916.97;;;22.92;40.22
23118;BME280;11728;50.624;6.014;2023-04-19T10:36:43;98917.16;;;22.89;40.28
23118;BME280;11728;50.624;6.014;2023-04-19T10:42:04;98917.00;;;24.02;38.31
23118;BME280;11728;50.624;6.014;2023-04-19T10:47:42;98913.50;;;24.26;37.37
23118;BME280;11728;50.624;6.014;2023-04-19T11:09:50;98891.25;;;23.96;35.92
23118;BME280;11728;50.624;6.014;2023-04-19T11:15:12;98863.81;;;24.80;34.98
23118;BME280;11728;50.624;6.014;2023-04-19T11:20:32;98864.56;;;24.69;33.24
23118;BME280;11728;50.624;6.014;2023-04-19T11:25:54;98856.34;;;25.20;31.63
23118;BME280;11728;50.624;6.014;2023-04-19T11:31:17;98849.69;;;25.37;31.27
23118;BME280;11728;50.624;6.014;2023-04-19T11:36:51;98852.59;;;25.10;31.26
23118;BME280;11728;50.624;6.014;2023-04-19T11:42:18;98839.78;;;25.00;30.78
23118;BME280;11728;50.624;6.014;2023-04-19T11:47:46;98835.34;;;25.11;30.11
23118;BME280;11728;50.624;6.014;2023-04-19T11:53:16;98831.78;;;25.23;30.29
23118;BME280;11728;50.624;6.014;2023-04-19T11:58:41;98831.91;;;24.84;29.75
23118;BME280;11728;50.624;6.014;2023-04-19T12:04:04;98818.56;;;25.31;29.56
23118;BME280;11728;50.624;6.014;2023-04-19T12:09:25;98819.91;;;25.13;29.87
23118;BME280;11728;50.624;6.014;2023-04-19T12:14:52;98818.06;;;25.01;28.98
23118;BME280;11728;50.624;6.014;2023-04-19T12:20:27;98810.28;;;25.09;28.89
23118;BME280;11728;50.624;6.014;2023-04-19T12:25:48;98809.00;;;24.78;28.88
23118;BME280;11728;50.624;6.014;2023-04-19T12:31:09;98808.31;;;25.11;27.83
23118;BME280;11728;50.624;6.014;2023-04-19T12:36:30;98805.41;;;24.89;28.12
23118;BME280;11728;50.624;6.014;2023-04-19T12:41:52;98801.72;;;24.90;28.40
23118;BME280;11728;50.624;6.014;2023-04-19T12:47:13;98780.25;;;24.52;28.85
23118;BME280;11728;50.624;6.014;2023-04-19T12:52:34;98781.31;;;24.49;28.59
23118;BME280;11728;50.624;6.014;2023-04-19T12:57:55;98782.84;;;23.77;29.03
23118;BME280;11728;50.624;6.014;2023-04-19T13:03:16;98786.88;;;23.70;28.78
23118;BME280;11728;50.624;6.014;2023-04-19T13:08:36;98774.53;;;23.66;28.56
23118;BME280;11728;50.624;6.014;2023-04-19T13:13:58;98766.03;;;24.11;27.88
23118;BME280;11728;50.624;6.014;2023-04-19T13:19:18;98754.47;;;24.09;27.75
23118;BME280;11728;50.624;6.014;2023-04-19T13:24:39;98755.03;;;24.39;28.25
23118;BME280;11728;50.624;6.014;2023-04-19T13:30:00;98755.25;;;24.11;27.55
23118;BME280;11728;50.624;6.014;2023-04-19T13:35:21;98754.69;;;23.67;27.26
23118;BME280;11728;50.624;6.014;2023-04-19T13:40:43;98742.91;;;23.29;27.62
23118;BME280;11728;50.624;6.014;2023-04-19T13:46:04;98742.97;;;23.16;27.02
23118;BME280;11728;50.624;6.014;2023-04-19T13:51:25;98727.09;;;22.97;25.92
23118;BME280;11728;50.624;6.014;2023-04-19T13:56:46;98735.25;;;22.55;26.92
23118;BME280;11728;50.624;6.014;2023-04-19T14:02:07;98724.38;;;22.43;27.22
23118;BME280;11728;50.624;6.014;2023-04-19T14:07:28;98728.94;;;22.27;27.38
23118;BME280;11728;50.624;6.014;2023-04-19T14:12:50;98716.31;;;21.86;28.03
23118;BME280;11728;50.624;6.014;2023-04-19T14:18:12;98721.84;;;21.69;27.67
23118;BME280;11728;50.624;6.014;2023-04-19T14:23:32;98718.19;;;21.41;27.54
23118;BME280;11728;50.624;6.014;2023-04-19T14:28:53;98710.69;;;21.01;27.67
23118;BME280;11728;50.624;6.014;2023-04-19T14:34:14;98693.59;;;20.71;28.07
23118;BME280;11728;50.624;6.014;2023-04-19T14:39:34;98707.38;;;20.17;28.94
23118;BME280;11728;50.624;6.014;2023-04-19T14:44:57;98703.69;;;20.20;29.64
23118;BME280;11728;50.624;6.014;2023-04-19T14:50:18;98693.69;;;19.90;28.93
23118;BME280;11728;50.624;6.014;2023-04-19T14:55:39;98685.84;;;19.70;29.92
23118;BME280;11728;50.624;6.014;2023-04-19T15:01:09;98700.91;;;19.72;29.36
23118;BME280;11728;50.624;6.014;2023-04-19T15:06:30;98695.41;;;19.75;28.65
23118;BME280;11728;50.624;6.014;2023-04-19T15:11:51;98675.94;;;19.38;29.22
23118;BME280;11728;50.624;6.014;2023-04-19T15:17:12;98671.53;;;19.20;29.18
23118;BME280;11728;50.624;6.014;2023-04-19T15:22:32;98669.00;;;19.17;28.82
23118;BME280;11728;50.624;6.014;2023-04-19T15:27:54;98674.38;;;18.99;29.02
23118;BME280;11728;50.624;6.014;2023-04-19T15:33:14;98675.41;;;18.43;28.93
23118;BME280;11728;50.624;6.014;2023-04-19T15:38:35;98672.59;;;18.07;29.04
23118;BME280;11728;50.624;6.014;2023-04-19T15:43:56;98666.59;;;17.84;29.19
23118;BME280;11728;50.624;6.014;2023-04-19T15:49:17;98666.28;;;17.72;29.15
23118;BME280;11728;50.624;6.014;2023-04-19T15:54:38;98671.78;;;17.29;29.05
23118;BME280;11728;50.624;6.014;2023-04-19T15:59:58;98668.81;;;16.93;29.89
23118;BME280;11728;50.624;6.014;2023-04-19T16:05:19;98656.00;;;16.82;30.22
23118;BME280;11728;50.624;6.014;2023-04-19T16:10:40;98668.50;;;16.60;30.86
23118;BME280;11728;50.624;6.014;2023-04-19T16:16:01;98679.63;;;16.48;30.96
23118;BME280;11728;50.624;6.014;2023-04-19T16:21:21;98687.09;;;16.40;30.65
23118;BME280;11728;50.624;6.014;2023-04-19T16:26:42;98679.88;;;16.19;31.22
23118;BME280;11728;50.624;6.014;2023-04-19T16:32:04;98682.69;;;15.93;30.75
23118;BME280;11728;50.624;6.014;2023-04-19T16:37:25;98665.28;;;15.60;30.39
23118;BME280;11728;50.624;6.014;2023-04-19T16:42:45;98674.03;;;15.39;31.12
23118;BME280;11728;50.624;6.014;2023-04-19T16:48:06;98674.19;;;15.35;31.32
23118;BME280;11728;50.624;6.014;2023-04-19T16:53:29;98666.06;;;15.14;31.17
23118;BME280;11728;50.624;6.014;2023-04-19T16:58:50;98672.94;;;14.95;31.23
23118;BME280;11728;50.624;6.014;2023-04-19T17:04:11;98666.38;;;14.79;31.54
23118;BME280;11728;50.624;6.014;2023-04-19T17:09:32;98670.28;;;14.69;31.89
23118;BME280;11728;50.624;6.014;2023-04-19T17:14:52;98665.91;;;14.41;32.04
23118;BME280;11728;50.624;6.014;2023-04-19T17:20:13;98668.19;;;14.25;32.21
23118;BME280;11728;50.624;6.014;2023-04-19T17:25:34;98666.09;;;14.06;32.01
23118;BME280;11728;50.624;6.014;2023-04-19T17:30:55;98659.25;;;13.99;32.09
23118;BME280;11728;50.624;6.014;2023-04-19T17:36:16;98657.06;;;13.82;32.67
23118;BME280;11728;50.624;6.014;2023-04-19T17:41:38;98666.25;;;13.73;32.53
23118;BME280;11728;50.624;6.014;2023-04-19T17:47:09;98667.59;;;13.57;32.97
23118;BME280;11728;50.624;6.014;2023-04-19T17:52:29;98669.88;;;13.38;32.86
23118;BME280;11728;50.624;6.014;2023-04-19T17:57:50;98663.31;;;13.21;33.16
23118;BME280;11728;50.624;6.014;2023-04-19T18:03:11;98663.84;;;13.02;33.45
23118;BME280;11728;50.624;6.014;2023-04-19T18:08:32;98659.81;;;12.86;33.24
23118;BME280;11728;50.624;6.014;2023-04-19T18:13:52;98667.25;;;12.72;33.72
23118;BME280;11728;50.624;6.014;2023-04-19T18:19:13;98673.78;;;12.57;34.15
23118;BME280;11728;50.624;6.014;2023-04-19T18:24:34;98668.25;;;12.66;35.04
23118;BME280;11728;50.624;6.014;2023-04-19T18:29:55;98675.34;;;12.29;34.93
23118;BME280;11728;50.624;6.014;2023-04-19T18:35:15;98677.59;;;12.10;35.22
23118;BME280;11728;50.624;6.014;2023-04-19T18:40:36;98675.25;;;11.96;35.49
23118;BME280;11728;50.624;6.014;2023-04-19T18:46:05;98680.00;;;11.81;35.76
23118;BME280;11728;50.624;6.014;2023-04-19T18:51:25;98683.88;;;11.65;36.22
23118;BME280;11728;50.624;6.014;2023-04-19T18:56:46;98687.59;;;11.55;36.50
23118;BME280;11728;50.624;6.014;2023-04-19T19:02:07;98694.91;;;11.43;36.79
23118;BME280;11728;50.624;6.014;2023-04-19T19:07:29;98692.44;;;11.32;36.99
23118;BME280;11728;50.624;6.014;2023-04-19T19:12:49;98699.69;;;11.23;37.34
23118;BME280;11728;50.624;6.014;2023-04-19T19:18:10;98705.25;;;11.09;37.37
23118;BME280;11728;50.624;6.014;2023-04-19T19:23:32;98706.28;;;10.99;38.04
23118;BME280;11728;50.624;6.014;2023-04-19T19:28:52;98706.50;;;10.87;38.00
23118;BME280;11728;50.624;6.014;2023-04-19T19:34:13;98706.72;;;10.75;37.89
23118;BME280;11728;50.624;6.014;2023-04-19T19:39:34;98714.81;;;10.65;38.49
23118;BME280;11728;50.624;6.014;2023-04-19T19:44:55;98700.97;;;10.51;38.60
23118;BME280;11728;50.624;6.014;2023-04-19T19:50:16;98708.97;;;10.44;39.02
23118;BME280;11728;50.624;6.014;2023-04-19T19:55:37;98717.91;;;10.37;38.77
23118;BME280;11728;50.624;6.014;2023-04-19T20:00:58;98714.56;;;10.26;39.15
23118;BME280;11728;50.624;6.014;2023-04-19T20:06:18;98721.81;;;10.12;39.22
23118;BME280;11728;50.624;6.014;2023-04-19T20:11:39;98719.28;;;10.03;39.29
23118;BME280;11728;50.624;6.014;2023-04-19T20:17:00;98716.75;;;9.94;39.51
23118;BME280;11728;50.624;6.014;2023-04-19T20:22:22;98730.03;;;9.85;39.69
23118;BME280;11728;50.624;6.014;2023-04-19T20:27:43;98724.97;;;9.72;40.48
23118;BME280;11728;50.624;6.014;2023-04-19T20:33:04;98726.00;;;9.60;40.59
23118;BME280;11728;50.624;6.014;2023-04-19T20:38:24;98728.81;;;9.45;40.97
23118;BME280;11728;50.624;6.014;2023-04-19T20:43:48;98737.66;;;9.38;40.86
23118;BME280;11728;50.624;6.014;2023-04-19T20:49:09;98743.00;;;9.32;40.97
23118;BME280;11728;50.624;6.014;2023-04-19T20:54:29;98732.53;;;9.25;41.45
23118;BME280;11728;50.624;6.014;2023-04-19T20:59:50;98736.16;;;9.17;41.77
23118;BME280;11728;50.624;6.014;2023-04-19T21:05:11;98734.50;;;9.05;41.80
23118;BME280;11728;50.624;6.014;2023-04-19T21:10:32;98734.59;;;8.96;42.27
23118;BME280;11728;50.624;6.014;2023-04-19T21:15:53;98737.31;;;8.87;42.48
23118;BME280;11728;50.624;6.014;2023-04-19T21:21:14;98741.75;;;8.79;42.70
23118;BME280;11728;50.624;6.014;2023-04-19T21:26:34;98742.72;;;8.68;43.04
23118;BME280;11728;50.624;6.014;2023-04-19T21:31:55;98748.06;;;8.59;43.21
23118;BME280;11728;50.624;6.014;2023-04-19T21:37:16;98738.50;;;8.49;43.91
23118;BME280;11728;50.624;6.014;2023-04-19T21:42:39;98736.81;;;8.42;44.21
23118;BME280;11728;50.624;6.014;2023-04-19T21:47:59;98741.25;;;8.34;43.89
23118;BME280;11728;50.624;6.014;2023-04-19T21:53:20;98745.69;;;8.29;43.96
23118;BME280;11728;50.624;6.014;2023-04-19T21:58:41;98744.81;;;8.24;44.44
23118;BME280;11728;50.624;6.014;2023-04-19T22:04:02;98746.63;;;8.16;44.76
23118;BME280;11728;50.624;6.014;2023-04-19T22:09:23;98750.19;;;8.03;45.20
23118;BME280;11728;50.624;6.014;2023-04-19T22:14:44;98740.59;;;7.95;45.73
23118;BME280;11728;50.624;6.014;2023-04-19T22:20:05;98732.72;;;7.87;45.68
23118;BME280;11728;50.624;6.014;2023-04-19T22:25:28;98740.66;;;7.78;45.98
23118;BME280;11728;50.624;6.014;2023-04-19T22:30:49;98736.31;;;7.71;46.21
23118;BME280;11728;50.624;6.014;2023-04-19T22:36:10;98729.34;;;7.64;46.16
23118;BME280;11728;50.624;6.014;2023-04-19T22:41:31;98724.13;;;7.56;46.58
23118;BME280;11728;50.624;6.014;2023-04-19T22:46:52;98723.28;;;7.49;46.57
23118;BME280;11728;50.624;6.014;2023-04-19T22:52:14;98718.03;;;7.45;46.80
23118;BME280;11728;50.624;6.014;2023-04-19T22:57:35;98714.56;;;7.37;47.26
23118;BME280;11728;50.624;6.014;2023-04-19T23:02:55;98703.22;;;7.20;47.43
23118;BME280;11728;50.624;6.014;2023-04-19T23:08:17;98704.16;;;7.02;48.48
23118;BME280;11728;50.624;6.014;2023-04-19T23:13:39;98701.56;;;6.95;48.94
23118;BME280;11728;50.624;6.014;2023-04-19T23:19:00;98698.94;;;6.86;48.94
23118;BME280;11728;50.624;6.014;2023-04-19T23:24:21;98692.84;;;6.78;49.57
23118;BME280;11728;50.624;6.014;2023-04-19T23:29:42;98682.38;;;6.66;49.95
23118;BME280;11728;50.624;6.014;2023-04-19T23:35:03;98680.63;;;6.50;50.68
23118;BME280;11728;50.624;6.014;2023-04-19T23:40:24;98676.25;;;6.25;51.74
23118;BME280;11728;50.624;6.014;2023-04-19T23:45:44;98678.88;;;6.08;52.57
23118;BME280;11728;50.624;6.014;2023-04-19T23:51:05;98678.84;;;5.96;53.24
23118;BME280;11728;50.624;6.014;2023-04-19T23:56:26;98686.69;;;5.78;54.50
